Time;durP1;ratioP1;P1;durP2;ratioP2;P2;SDS_P1;SDS_P2;PMS_P1;PMS_P2;Temp;Humidity;BMP_temperature;BMP_pressure;BME280_temperature;BME280_humidity;BME280_pressure;Samples;Min_cycle;Max_cycle;Signal;HPM_P1;HPM_P2
2021/12/27 09:39:59;;;;;;;2.50;1.10;;;10.30;99.90;;;;;;3242935;23;20239;-67
2021/12/27 09:42:28;;;;;;;1.93;1.20;;;10.40;99.90;;;;;;4887023;29;20670;-70
2021/12/27 09:44:56;;;;;;;2.73;1.30;;;10.40;99.90;;;;;;4888037;29;20211;-71
2021/12/27 09:47:24;;;;;;;2.00;1.07;;;10.40;99.90;;;;;;4881818;29;20230;-73
2021/12/27 09:49:51;;;;;;;4.87;1.73;;;10.60;99.90;;;;;;4898293;29;20679;-71
2021/12/27 09:52:18;;;;;;;2.33;1.13;;;10.80;99.90;;;;;;4898267;29;20210;-72
2021/12/27 09:54:46;;;;;;;2.90;1.07;;;11.00;99.90;;;;;;4898026;29;20230;-70
2021/12/27 09:57:15;;;;;;;2.10;0.97;;;10.90;99.90;;;;;;4907103;29;20633;-70
2021/12/27 09:59:42;;;;;;;2.70;1.17;;;11.00;99.90;;;;;;4916909;29;20220;-70
2021/12/27 10:02:09;;;;;;;2.03;1.07;;;11.00;99.90;;;;;;4916909;29;20669;-70
2021/12/27 10:04:36;;;;;;;1.10;0.80;;;11.20;99.90;;;;;;4916962;29;20214;-69
2021/12/27 10:07:04;;;;;;;1.70;0.83;;;11.10;99.90;;;;;;4916675;29;20328;-74
2021/12/27 10:09:33;;;;;;;1.33;0.90;;;11.10;99.90;;;;;;4902913;29;20214;-74
2021/12/27 10:12:03;;;;;;;0.90;0.80;;;11.00;99.90;;;;;;4897740;29;20217;-72
2021/12/27 10:14:31;;;;;;;1.60;0.83;;;10.80;99.90;;;;;;4898079;29;20301;-73
2021/12/27 10:17:08;;;;;;;1.60;0.93;;;10.90;99.90;;;;;;4897682;29;20589;-71
2021/12/27 10:19:36;;;;;;;1.63;1.00;;;10.90;99.90;;;;;;4898041;29;20217;-70
2021/12/27 10:22:12;;;;;;;1.37;0.80;;;11.10;99.90;;;;;;4897838;29;20221;-71
2021/12/27 10:24:40;;;;;;;1.77;0.97;;;11.10;99.90;;;;;;4898001;29;20270;-72
2021/12/27 10:27:07;;;;;;;1.33;0.90;;;11.20;99.90;;;;;;4897575;29;20704;-71
2021/12/27 10:29:37;;;;;;;2.83;1.10;;;11.30;99.90;;;;;;4897710;29;20637;-71
2021/12/27 10:32:06;;;;;;;1.00;0.87;;;11.40;99.90;;;;;;4897686;29;20210;-69
2021/12/27 10:34:36;;;;;;;1.83;0.97;;;11.40;99.90;;;;;;4910976;29;20218;-72
2021/12/27 10:37:07;;;;;;;2.20;1.00;;;11.30;99.90;;;;;;4897451;29;20594;-74
2021/12/27 10:39:47;;;;;;;1.50;0.80;;;11.10;99.90;;;;;;4897529;29;20222;-74
2021/12/27 10:42:16;;;;;;;1.57;0.73;;;11.10;99.90;;;;;;4897276;29;20542;-69
2021/12/27 10:44:45;;;;;;;0.93;0.70;;;11.30;99.90;;;;;;4897918;29;20214;-69
2021/12/27 10:47:39;;;;;;;1.80;0.80;;;11.30;99.90;;;;;;4901958;29;20320;-76
2021/12/27 10:50:10;;;;;;;1.67;0.80;;;11.40;99.90;;;;;;4901561;29;20214;-69
2021/12/27 10:52:53;;;;;;;3.03;0.90;;;11.40;99.90;;;;;;4901414;29;20573;-74
2021/12/27 10:55:22;;;;;;;1.70;1.10;;;11.40;99.90;;;;;;4901392;29;20604;-70
2021/12/27 10:57:50;;;;;;;4.50;1.00;;;11.30;99.90;;;;;;4901226;29;20236;-74
2021/12/27 11:00:22;;;;;;;1.80;1.00;;;11.40;99.90;;;;;;4901482;29;20210;-69
2021/12/27 11:02:49;;;;;;;1.00;0.80;;;11.60;99.90;;;;;;4901036;29;20230;-75
2021/12/27 11:05:19;;;;;;;2.40;1.20;;;11.40;99.90;;;;;;4901223;29;20225;-69
2021/12/27 11:07:46;;;;;;;2.37;0.90;;;11.20;99.90;;;;;;4901198;29;20230;-70
2021/12/27 11:10:13;;;;;;;3.33;1.10;;;11.20;99.90;;;;;;4901303;29;20214;-69
2021/12/27 11:12:40;;;;;;;3.87;1.40;;;11.30;99.90;;;;;;4901588;29;20665;-68
2021/12/27 11:15:10;;;;;;;1.73;0.80;;;11.20;99.90;;;;;;4901964;29;20234;-71
2021/12/27 11:17:39;;;;;;;1.70;0.80;;;11.20;99.90;;;;;;4900580;29;20234;-69
2021/12/27 11:20:08;;;;;;;1.87;1.00;;;11.20;99.90;;;;;;4901306;29;20658;-69
2021/12/27 11:22:37;;;;;;;0.83;0.60;;;11.30;99.90;;;;;;4901084;29;20749;-71
2021/12/27 11:25:06;;;;;;;2.07;1.03;;;11.40;99.90;;;;;;4900840;29;20215;-74
2021/12/27 11:27:35;;;;;;;5.03;0.90;;;11.30;99.90;;;;;;4900305;29;20314;-70
2021/12/27 11:30:09;;;;;;;1.27;0.60;;;11.50;99.90;;;;;;4900342;29;20218;-70
2021/12/27 11:32:36;;;;;;;0.70;0.60;;;11.40;99.90;;;;;;4900404;29;20278;-70
2021/12/27 11:35:09;;;;;;;1.53;0.80;;;11.40;99.90;;;;;;4919990;29;20209;-79
2021/12/27 11:37:37;;;;;;;3.63;0.83;;;11.60;99.90;;;;;;4916865;29;20229;-73
2021/12/27 11:40:07;;;;;;;2.47;0.90;;;11.50;99.90;;;;;;4899427;29;20225;-70
2021/12/27 11:42:52;;;;;;;2.13;0.60;;;11.70;99.90;;;;;;4897096;29;20748;-72
2021/12/27 11:45:37;;;;;;;1.37;0.90;;;11.80;99.90;;;;;;4899495;29;20233;-76
2021/12/27 11:48:09;;;;;;;1.20;0.70;;;11.70;99.90;;;;;;4898755;29;20713;-71
2021/12/27 11:51:10;;;;;;;1.47;0.90;;;11.70;99.90;;;;;;4898612;29;20222;-74
2021/12/27 11:53:45;;;;;;;2.43;1.00;;;11.80;99.90;;;;;;4899155;29;20210;-76
2021/12/27 11:56:16;;;;;;;1.47;0.87;;;11.90;99.90;;;;;;4897618;29;20587;-72
2021/12/27 11:58:45;;;;;;;1.00;0.80;;;12.00;99.90;;;;;;4899149;29;20212;-69
2021/12/27 12:01:36;;;;;;;1.73;0.67;;;12.00;99.90;;;;;;4898840;29;20214;-76
2021/12/27 12:04:03;;;;;;;1.17;0.77;;;12.10;99.90;;;;;;4899492;29;20661;-75
2021/12/27 12:06:42;;;;;;;3.80;1.17;;;12.20;99.90;;;;;;4899311;29;20210;-68
2021/12/27 12:09:15;;;;;;;2.70;1.00;;;12.20;99.90;;;;;;4899488;29;20209;-72
2021/12/27 12:11:43;;;;;;;0.93;0.57;;;12.10;99.90;;;;;;4899983;29;20206;-73
2021/12/27 12:14:27;;;;;;;1.13;0.70;;;12.20;99.90;;;;;;4900221;29;20222;-73
2021/12/27 12:16:54;;;;;;;1.27;0.83;;;12.10;99.90;;;;;;4899928;29;20646;-72
2021/12/27 12:19:36;;;;;;;2.70;1.43;;;12.10;99.90;;;;;;4900106;29;20221;-73
2021/12/27 12:22:05;;;;;;;2.77;0.80;;;12.00;99.90;;;;;;4900005;29;20210;-74
2021/12/27 12:24:32;;;;;;;3.40;0.77;;;12.00;99.90;;;;;;4899569;29;20225;-71
2021/12/27 12:27:01;;;;;;;1.73;0.80;;;12.00;99.90;;;;;;4899399;29;20724;-72
2021/12/27 12:29:30;;;;;;;1.13;0.60;;;12.00;99.90;;;;;;4899819;29;20206;-71
2021/12/27 12:31:59;;;;;;;0.93;0.70;;;12.10;99.90;;;;;;4895387;29;20214;-69
2021/12/27 12:34:27;;;;;;;1.30;0.80;;;11.90;99.90;;;;;;4912863;29;20692;-70
2021/12/27 12:36:57;;;;;;;1.70;0.80;;;12.00;99.90;;;;;;4917116;29;20268;-68
2021/12/27 12:39:34;;;;;;;2.00;1.00;;;12.00;99.90;;;;;;4916515;29;20218;-76
2021/12/27 12:42:06;;;;;;;1.73;0.60;;;12.00;99.90;;;;;;4901397;29;20214;-68
2021/12/27 12:44:33;;;;;;;1.33;0.67;;;11.80;99.90;;;;;;4898269;29;20582;-68
2021/12/27 12:47:01;;;;;;;1.60;0.70;;;11.90;99.90;;;;;;4897238;29;20231;-74
2021/12/27 12:49:30;;;;;;;2.27;0.87;;;11.90;99.90;;;;;;4899067;29;20689;-69
2021/12/27 12:51:59;;;;;;;2.33;0.93;;;11.90;99.90;;;;;;4899205;29;20692;-76
2021/12/27 12:54:30;;;;;;;3.83;1.00;;;11.90;99.90;;;;;;4899282;29;20626;-74
2021/12/27 12:57:00;;;;;;;2.67;0.90;;;11.80;99.90;;;;;;4898977;29;20246;-72
2021/12/27 12:59:28;;;;;;;3.03;1.10;;;11.60;99.90;;;;;;4898835;29;20217;-69
2021/12/27 13:01:58;;;;;;;1.20;0.80;;;11.60;99.90;;;;;;4899068;29;20294;-68
2021/12/27 13:04:25;;;;;;;2.70;1.00;;;11.70;99.90;;;;;;4898887;29;20648;-69
2021/12/27 13:06:52;;;;;;;1.50;0.90;;;11.60;99.90;;;;;;4899283;29;20231;-70
2021/12/27 13:09:18;;;;;;;2.27;1.00;;;11.60;99.90;;;;;;4898365;29;20295;-70
2021/12/27 13:11:55;;;;;;;2.00;0.80;;;11.70;99.90;;;;;;4898817;29;20659;-71
2021/12/27 13:14:25;;;;;;;1.97;1.00;;;11.60;99.90;;;;;;4898774;29;20618;-69
2021/12/27 13:16:54;;;;;;;2.20;1.10;;;11.70;99.90;;;;;;4898268;29;20301;-70
2021/12/27 13:19:21;;;;;;;1.90;0.90;;;11.70;99.90;;;;;;4898699;29;20219;-68
2021/12/27 13:21:47;;;;;;;2.17;0.90;;;11.60;99.90;;;;;;4899057;29;20649;-67
2021/12/27 13:24:14;;;;;;;1.77;0.90;;;11.60;99.90;;;;;;4898298;29;20573;-67
2021/12/27 13:26:41;;;;;;;2.50;0.70;;;11.50;99.90;;;;;;4898501;29;20237;-72
2021/12/27 13:29:09;;;;;;;2.87;0.60;;;11.50;99.90;;;;;;4897610;29;20672;-67
2021/12/27 13:31:36;;;;;;;3.33;0.87;;;11.50;99.90;;;;;;4898954;29;20216;-69
2021/12/27 13:34:05;;;;;;;2.23;0.70;;;11.50;99.90;;;;;;4910119;29;20671;-72
2021/12/27 13:36:34;;;;;;;1.80;0.70;;;11.50;99.90;;;;;;4917248;29;20244;-70
2021/12/27 13:39:06;;;;;;;3.17;0.73;;;11.70;99.90;;;;;;4917157;29;20216;-72
2021/12/27 13:41:35;;;;;;;1.57;0.70;;;11.60;99.90;;;;;;4917067;29;20795;-69
2021/12/27 13:44:06;;;;;;;2.00;0.70;;;11.60;99.90;;;;;;4900941;29;20215;-69
2021/12/27 13:46:36;;;;;;;1.50;0.70;;;11.60;99.90;;;;;;4900066;29;20325;-69
2021/12/27 13:49:07;;;;;;;2.60;0.90;;;11.60;99.90;;;;;;4898627;29;20218;-70
2021/12/27 13:51:36;;;;;;;5.33;1.07;;;11.60;99.90;;;;;;4898064;29;20256;-68
2021/12/27 13:54:05;;;;;;;2.53;0.80;;;11.60;99.90;;;;;;4898358;29;20243;-70
2021/12/27 13:56:34;;;;;;;3.47;0.83;;;11.50;99.90;;;;;;4897869;29;20321;-69
2021/12/27 13:59:07;;;;;;;2.80;0.93;;;11.30;99.90;;;;;;4898107;29;20206;-69
2021/12/27 14:01:35;;;;;;;2.30;0.70;;;11.40;99.90;;;;;;4897820;29;20630;-69
2021/12/27 14:04:16;;;;;;;1.67;0.80;;;11.40;99.90;;;;;;4897759;29;20206;-68
2021/12/27 14:06:45;;;;;;;2.60;0.60;;;11.40;99.90;;;;;;4895046;29;21219;-69
2021/12/27 14:09:12;;;;;;;1.80;0.90;;;11.40;99.90;;;;;;4892769;29;20226;-69
2021/12/27 14:11:50;;;;;;;3.20;0.80;;;11.50;99.90;;;;;;4893011;29;20214;-68
2021/12/27 14:14:32;;;;;;;3.23;1.27;;;11.40;99.90;;;;;;4897214;29;20825;-69
2021/12/27 14:17:07;;;;;;;4.47;1.83;;;11.40;99.90;;;;;;4897254;29;20294;-69
2021/12/27 14:19:34;;;;;;;4.80;0.97;;;11.50;99.90;;;;;;4897380;29;20214;-71
2021/12/27 14:22:04;;;;;;;5.10;1.33;;;11.60;99.90;;;;;;4897859;29;20217;-77
2021/12/27 14:24:54;;;;;;;2.03;1.03;;;11.60;99.90;;;;;;4897794;29;20210;-67
2021/12/27 14:27:27;;;;;;;2.87;0.80;;;11.40;99.90;;;;;;4892812;29;20286;-70
2021/12/27 14:30:19;;;;;;;4.30;1.10;;;11.40;99.90;;;;;;4897967;29;20207;-69
2021/12/27 14:33:02;;;;;;;2.40;0.83;;;11.40;99.90;;;;;;4885647;29;20224;-70
2021/12/27 14:35:30;;;;;;;2.93;0.80;;;11.60;99.90;;;;;;4916575;29;20209;-68
2021/12/27 14:38:00;;;;;;;4.77;0.93;;;11.40;99.90;;;;;;4897972;29;20246;-68
2021/12/27 14:40:27;;;;;;;1.90;0.67;;;11.40;99.90;;;;;;4897392;29;20214;-69
2021/12/27 14:42:57;;;;;;;2.57;1.30;;;11.30;99.90;;;;;;4897494;29;20222;-68
2021/12/27 14:45:26;;;;;;;1.83;0.90;;;11.30;99.90;;;;;;4897662;29;20218;-69
2021/12/27 14:47:54;;;;;;;1.27;0.67;;;11.30;99.90;;;;;;4897565;29;20240;-71
2021/12/27 14:50:23;;;;;;;1.93;1.03;;;11.20;99.90;;;;;;4897580;29;20680;-74
2021/12/27 14:52:50;;;;;;;3.13;1.33;;;11.20;99.90;;;;;;4897936;29;20278;-69
2021/12/27 14:55:19;;;;;;;3.27;1.17;;;11.10;99.90;;;;;;4897679;29;20214;-71
2021/12/27 14:57:46;;;;;;;3.30;1.00;;;11.00;99.90;;;;;;4897349;29;20256;-70
2021/12/27 15:00:17;;;;;;;3.97;1.00;;;10.90;99.90;;;;;;4897797;29;20215;-68
2021/12/27 15:02:43;;;;;;;1.37;0.93;;;10.90;99.90;;;;;;4897556;29;20222;-70
2021/12/27 15:05:12;;;;;;;2.03;0.80;;;10.90;99.90;;;;;;4897576;29;20566;-70
2021/12/27 15:07:39;;;;;;;3.40;1.20;;;10.80;99.90;;;;;;4897393;29;20718;-70
2021/12/27 15:10:08;;;;;;;4.07;1.10;;;10.70;99.90;;;;;;4897334;29;20211;-68
2021/12/27 15:12:35;;;;;;;1.60;1.10;;;10.80;99.90;;;;;;4897467;29;20207;-68
2021/12/27 15:15:02;;;;;;;2.27;1.20;;;10.80;99.90;;;;;;4897412;29;20214;-68
2021/12/27 15:17:30;;;;;;;3.33;1.20;;;10.70;99.90;;;;;;4897520;29;20242;-68
2021/12/27 15:19:58;;;;;;;1.97;0.97;;;10.70;99.90;;;;;;4897670;29;20207;-68
2021/12/27 15:22:27;;;;;;;2.87;1.00;;;10.80;99.90;;;;;;4897556;29;20216;-68
2021/12/27 15:24:54;;;;;;;3.23;0.93;;;10.80;99.90;;;;;;4897549;29;20237;-70
2021/12/27 15:27:20;;;;;;;3.60;1.13;;;10.80;99.90;;;;;;4896996;29;20237;-69
2021/12/27 15:29:47;;;;;;;3.40;1.10;;;10.80;99.90;;;;;;4896913;29;20210;-68
2021/12/27 15:32:15;;;;;;;1.77;0.97;;;10.80;99.90;;;;;;4898818;29;20212;-68
2021/12/27 15:34:42;;;;;;;1.77;0.93;;;10.70;99.90;;;;;;4900652;29;20218;-68
2021/12/27 15:37:09;;;;;;;2.90;1.10;;;10.70;99.90;;;;;;4912999;23;20234;-73
2021/12/27 15:39:37;;;;;;;4.13;1.20;;;10.80;99.90;;;;;;4900712;29;20221;-73
2021/12/27 15:42:04;;;;;;;2.97;1.20;;;10.90;99.90;;;;;;4900350;29;20217;-73
2021/12/27 15:44:31;;;;;;;3.30;1.13;;;10.90;99.90;;;;;;4900693;29;20221;-79
2021/12/27 15:46:58;;;;;;;4.77;1.40;;;10.90;99.90;;;;;;4900446;29;20261;-78
2021/12/27 15:49:26;;;;;;;5.20;1.20;;;10.70;99.90;;;;;;4900481;29;20237;-78
2021/12/27 15:51:52;;;;;;;2.10;1.10;;;10.70;99.90;;;;;;4900691;29;20214;-73
2021/12/27 15:54:19;;;;;;;2.67;1.20;;;10.60;99.90;;;;;;4900125;29;20210;-72
2021/12/27 15:56:47;;;;;;;2.57;1.10;;;10.60;99.90;;;;;;4900148;29;20248;-73
2021/12/27 15:59:14;;;;;;;2.40;1.13;;;10.50;99.90;;;;;;4900390;29;20221;-72
2021/12/27 16:01:41;;;;;;;3.10;1.30;;;10.40;99.90;;;;;;4900386;29;20658;-78
2021/12/27 16:04:10;;;;;;;3.43;1.30;;;10.40;99.90;;;;;;4900248;29;20214;-78
2021/12/27 16:06:37;;;;;;;1.97;1.10;;;10.40;99.90;;;;;;4900141;29;20638;-73
2021/12/27 16:09:04;;;;;;;2.13;1.37;;;10.40;99.90;;;;;;4900312;29;20210;-72
2021/12/27 16:11:31;;;;;;;2.17;1.20;;;10.30;99.90;;;;;;4894986;29;20211;-72
2021/12/27 16:13:59;;;;;;;1.50;1.30;;;10.40;99.90;;;;;;4900260;29;20214;-70
2021/12/27 16:16:27;;;;;;;5.33;2.40;;;10.30;99.90;;;;;;4899953;29;20213;-73
2021/12/27 16:18:55;;;;;;;3.50;1.77;;;10.30;99.90;;;;;;4900146;29;20270;-71
2021/12/27 16:21:22;;;;;;;6.70;1.60;;;10.20;99.90;;;;;;4899935;29;20678;-77
2021/12/27 16:23:49;;;;;;;2.33;1.50;;;10.20;99.90;;;;;;4900081;29;20245;-74
2021/12/27 16:26:19;;;;;;;1.90;1.50;;;10.20;99.90;;;;;;4900042;29;20215;-76
2021/12/27 16:28:46;;;;;;;3.23;1.57;;;10.20;99.90;;;;;;4900146;29;20262;-85
2021/12/27 16:31:15;;;;;;;2.60;1.40;;;10.10;99.90;;;;;;4900656;29;20238;-80
2021/12/27 16:33:45;;;;;;;4.20;1.90;;;10.00;99.90;;;;;;4901100;29;20210;-84
2021/12/27 16:36:12;;;;;;;4.80;1.50;;;10.10;99.90;;;;;;4901301;29;20217;-84
2021/12/27 16:38:39;;;;;;;2.70;1.60;;;10.10;99.90;;;;;;4900224;29;20238;-81
2021/12/27 16:41:07;;;;;;;3.90;1.63;;;10.10;99.90;;;;;;4900222;29;20217;-84
2021/12/27 16:43:34;;;;;;;2.10;1.30;;;10.00;99.90;;;;;;4900302;29;20215;-78
2021/12/27 16:46:00;;;;;;;2.10;1.30;;;10.00;99.90;;;;;;4899574;29;20214;-72
2021/12/27 16:48:29;;;;;;;2.63;1.40;;;10.00;99.90;;;;;;4899708;29;20244;-72
2021/12/27 16:51:00;;;;;;;2.93;1.10;;;10.00;99.90;;;;;;4899265;29;20207;-72
2021/12/27 16:53:27;;;;;;;2.17;1.10;;;9.90;99.90;;;;;;4899522;29;20383;-75
2021/12/27 16:55:54;;;;;;;3.07;1.50;;;9.80;99.90;;;;;;4898765;29;20210;-72
2021/12/27 16:58:21;;;;;;;2.07;1.13;;;9.90;99.90;;;;;;4898712;29;20246;-72
2021/12/27 17:00:50;;;;;;;1.30;0.83;;;9.80;99.90;;;;;;4899260;29;20214;-68
2021/12/27 17:03:18;;;;;;;1.83;1.40;;;9.90;99.90;;;;;;4899092;29;20214;-71
2021/12/27 17:05:48;;;;;;;3.03;1.10;;;9.90;99.90;;;;;;4899013;29;20207;-76
2021/12/27 17:08:15;;;;;;;2.10;1.00;;;9.90;99.90;;;;;;4913852;29;20430;-77
2021/12/27 17:10:42;;;;;;;2.13;1.20;;;9.90;99.90;;;;;;4906787;29;20210;-69
2021/12/27 17:13:08;;;;;;;3.10;1.20;;;9.90;99.90;;;;;;4898899;29;20210;-76
2021/12/27 17:15:38;;;;;;;1.83;1.20;;;9.90;99.90;;;;;;4898908;29;20214;-74
2021/12/27 17:18:07;;;;;;;1.13;0.90;;;9.80;99.90;;;;;;4898768;29;20249;-73
2021/12/27 17:20:35;;;;;;;1.60;1.17;;;9.70;99.90;;;;;;4898747;29;20216;-75
2021/12/27 17:23:04;;;;;;;1.67;1.20;;;9.70;99.90;;;;;;4898485;29;20666;-74
2021/12/27 17:25:33;;;;;;;3.03;1.20;;;9.70;99.90;;;;;;4898686;29;20210;-74
2021/12/27 17:28:01;;;;;;;1.63;1.10;;;9.70;99.90;;;;;;4898412;29;20233;-77
2021/12/27 17:30:29;;;;;;;2.10;1.40;;;9.70;99.90;;;;;;4898401;29;20262;-75
2021/12/27 17:32:57;;;;;;;1.60;0.97;;;9.70;99.90;;;;;;4898538;29;20206;-69
2021/12/27 17:35:24;;;;;;;2.57;0.87;;;9.70;99.90;;;;;;4907114;29;20212;-70
2021/12/27 17:37:51;;;;;;;2.40;1.13;;;9.70;99.90;;;;;;4917265;29;20252;-73
2021/12/27 17:40:20;;;;;;;3.70;1.50;;;9.80;99.90;;;;;;4910356;29;20206;-72
2021/12/27 17:42:49;;;;;;;1.70;1.10;;;9.80;99.90;;;;;;4898030;29;20215;-75
2021/12/27 17:45:16;;;;;;;1.80;1.07;;;9.90;99.90;;;;;;4897985;29;20503;-74
2021/12/27 17:47:45;;;;;;;2.17;1.33;;;9.80;99.90;;;;;;4898119;29;20234;-74
2021/12/27 17:50:13;;;;;;;2.57;1.33;;;9.80;99.90;;;;;;4898120;29;20198;-76
2021/12/27 17:52:40;;;;;;;2.53;1.03;;;9.90;99.90;;;;;;4898270;29;20226;-73
2021/12/27 17:55:08;;;;;;;1.87;1.10;;;9.80;99.90;;;;;;4897896;29;20225;-78
2021/12/27 17:57:36;;;;;;;2.17;1.03;;;9.80;99.90;;;;;;4897751;29;20601;-73
2021/12/27 18:00:05;;;;;;;2.23;1.67;;;9.90;99.90;;;;;;4897971;29;20685;-73
2021/12/27 18:02:32;;;;;;;1.90;1.30;;;9.80;99.90;;;;;;4898251;29;20232;-77
2021/12/27 18:04:59;;;;;;;2.10;1.13;;;9.90;99.90;;;;;;4897999;29;20217;-70
2021/12/27 18:07:26;;;;;;;2.30;1.30;;;9.90;99.90;;;;;;4897887;29;20234;-75
2021/12/27 18:09:53;;;;;;;5.17;1.50;;;9.90;99.90;;;;;;4897482;29;20684;-69
2021/12/27 18:12:21;;;;;;;1.93;1.67;;;10.00;99.90;;;;;;4897680;29;20220;-74
2021/12/27 18:14:49;;;;;;;2.90;1.53;;;10.00;99.90;;;;;;4898250;29;20301;-69
2021/12/27 18:17:16;;;;;;;3.30;1.70;;;9.90;99.90;;;;;;4898021;29;20234;-71
2021/12/27 18:19:43;;;;;;;2.80;1.87;;;9.80;99.90;;;;;;4897843;29;20207;-78
2021/12/27 18:22:10;;;;;;;2.27;1.47;;;9.90;99.90;;;;;;4897658;29;20662;-70
2021/12/27 18:24:37;;;;;;;3.20;1.80;;;9.90;99.90;;;;;;4897543;29;20217;-82
2021/12/27 18:27:04;;;;;;;2.30;1.50;;;9.90;99.90;;;;;;4898078;29;20229;-71
2021/12/27 18:29:33;;;;;;;2.50;1.40;;;9.80;99.90;;;;;;4898456;29;20211;-81
2021/12/27 18:32:02;;;;;;;4.53;1.60;;;9.80;99.90;;;;;;4898214;29;20285;-81
2021/12/27 18:34:30;;;;;;;2.17;1.33;;;9.80;99.90;;;;;;4898073;29;20642;-80
2021/12/27 18:36:58;;;;;;;3.20;1.73;;;9.80;99.90;;;;;;4897571;29;20238;-81
2021/12/27 18:39:25;;;;;;;4.67;1.80;;;9.90;99.90;;;;;;4897651;29;20234;-81
2021/12/27 18:41:52;;;;;;;2.43;1.60;;;9.90;99.90;;;;;;4898073;29;20224;-80
2021/12/27 18:44:19;;;;;;;4.80;1.83;;;9.90;99.90;;;;;;4897862;29;20216;-71
2021/12/27 18:46:45;;;;;;;4.67;1.93;;;10.00;99.90;;;;;;4897569;29;20244;-81
2021/12/27 18:49:15;;;;;;;2.80;1.73;;;9.90;99.90;;;;;;4897575;29;20688;-71
2021/12/27 18:51:42;;;;;;;2.23;1.47;;;9.90;99.90;;;;;;4897715;29;20229;-78
2021/12/27 18:54:09;;;;;;;4.53;2.10;;;9.90;99.90;;;;;;4897864;29;20206;-72
2021/12/27 18:56:36;;;;;;;5.97;2.20;;;9.90;99.90;;;;;;4897560;29;20210;-71
2021/12/27 18:59:03;;;;;;;3.87;2.07;;;10.00;99.90;;;;;;4897327;29;20242;-72
2021/12/27 19:01:30;;;;;;;5.20;2.20;;;10.00;99.90;;;;;;4897636;29;20213;-79
2021/12/27 19:03:57;;;;;;;5.77;2.33;;;10.00;99.90;;;;;;4897810;29;20262;-81
2021/12/27 19:06:25;;;;;;;10.10;2.80;;;10.00;99.90;;;;;;4897847;29;20207;-81
2021/12/27 19:08:52;;;;;;;6.33;2.37;;;10.00;99.90;;;;;;4901638;29;20206;-72
2021/12/27 19:11:19;;;;;;;6.87;2.40;;;10.00;99.90;;;;;;4901533;29;20214;-72
2021/12/27 19:13:47;;;;;;;4.37;1.97;;;10.10;99.90;;;;;;4901452;29;20570;-80
2021/12/27 19:16:16;;;;;;;11.00;2.97;;;10.00;99.90;;;;;;4901409;29;20210;-82
2021/12/27 19:18:43;;;;;;;6.23;2.03;;;10.00;99.90;;;;;;4900745;29;20261;-81
2021/12/27 19:21:11;;;;;;;7.20;2.20;;;10.00;99.90;;;;;;4901131;29;20211;-73
2021/12/27 19:23:40;;;;;;;5.93;2.10;;;10.00;99.90;;;;;;4901287;29;20247;-72
2021/12/27 19:26:07;;;;;;;4.07;2.23;;;10.00;99.90;;;;;;4901153;29;20214;-80
2021/12/27 19:28:34;;;;;;;8.37;2.37;;;10.10;99.90;;;;;;4900712;29;20245;-73
2021/12/27 19:31:01;;;;;;;7.93;2.43;;;10.10;99.90;;;;;;4900869;29;20206;-75
2021/12/27 19:33:27;;;;;;;7.03;1.90;;;10.10;99.90;;;;;;4900705;29;20594;-80
2021/12/27 19:35:54;;;;;;;11.20;2.43;;;10.10;99.90;;;;;;4900956;29;20229;-73
2021/12/27 19:38:21;;;;;;;7.23;2.40;;;10.10;99.90;;;;;;4900392;29;20246;-72
2021/12/27 19:40:50;;;;;;;7.97;2.13;;;10.10;99.90;;;;;;4900450;29;20701;-80
2021/12/27 19:43:20;;;;;;;7.10;2.23;;;10.10;99.90;;;;;;4900658;29;20427;-83
2021/12/27 19:45:48;;;;;;;9.77;2.40;;;10.10;99.90;;;;;;4900455;29;20271;-76
2021/12/27 19:48:16;;;;;;;12.17;2.00;;;10.20;99.90;;;;;;4900417;29;20713;-82
2021/12/27 19:50:43;;;;;;;9.80;2.27;;;10.20;99.90;;;;;;4900473;29;20229;-82
2021/12/27 19:53:11;;;;;;;8.60;2.07;;;10.20;99.90;;;;;;4892464;29;20219;-73
2021/12/27 19:55:39;;;;;;;7.83;2.10;;;10.20;99.90;;;;;;4888558;29;20215;-76
2021/12/27 19:58:08;;;;;;;6.27;1.87;;;10.20;99.90;;;;;;4890937;29;20242;-81
2021/12/27 20:00:36;;;;;;;6.20;1.83;;;10.10;99.90;;;;;;4895835;29;20207;-73
2021/12/27 20:03:03;;;;;;;7.73;2.00;;;10.10;99.90;;;;;;4895431;29;20213;-72
2021/12/27 20:05:30;;;;;;;8.30;2.27;;;10.20;99.90;;;;;;4892545;29;20658;-73
2021/12/27 20:07:57;;;;;;;7.30;1.97;;;10.10;99.90;;;;;;4893506;29;20238;-73
2021/12/27 20:10:25;;;;;;;7.73;1.70;;;10.10;99.90;;;;;;4883359;29;20670;-73
2021/12/27 20:12:55;;;;;;;7.50;2.27;;;10.10;99.90;;;;;;4892958;29;20211;-73
2021/12/27 20:15:25;;;;;;;4.37;1.60;;;10.10;99.90;;;;;;4886075;29;20227;-73
2021/12/27 20:17:53;;;;;;;7.47;1.60;;;10.10;99.90;;;;;;4891587;29;20226;-73
2021/12/27 20:20:20;;;;;;;4.87;2.27;;;10.20;99.90;;;;;;4890921;29;20238;-73
2021/12/27 20:22:47;;;;;;;3.83;1.80;;;10.20;99.90;;;;;;4892734;29;20222;-73
2021/12/27 20:25:14;;;;;;;14.23;1.63;;;10.30;99.90;;;;;;4894132;29;20221;-74
2021/12/27 20:27:41;;;;;;;9.03;1.93;;;10.30;99.90;;;;;;4882918;29;20227;-80
2021/12/27 20:30:10;;;;;;;7.67;1.83;;;10.40;99.90;;;;;;4892510;29;20207;-74
2021/12/27 20:32:38;;;;;;;10.30;2.07;;;10.40;99.90;;;;;;4890978;29;20301;-74
2021/12/27 20:35:06;;;;;;;13.40;1.80;;;10.40;99.90;;;;;;4889951;29;20219;-80
2021/12/27 20:37:33;;;;;;;7.70;1.93;;;10.50;99.90;;;;;;4895768;29;20253;-76
2021/12/27 20:40:00;;;;;;;6.83;1.60;;;10.50;99.90;;;;;;4885340;29;20239;-80
2021/12/27 20:42:27;;;;;;;10.23;1.80;;;10.40;99.90;;;;;;4888202;29;20218;-79
2021/12/27 20:44:54;;;;;;;12.07;2.27;;;10.50;99.90;;;;;;4892144;29;20215;-81
2021/12/27 20:47:21;;;;;;;6.00;1.70;;;10.50;99.90;;;;;;4885613;29;20274;-81
2021/12/27 20:49:49;;;;;;;14.57;2.13;;;10.50;99.90;;;;;;4892430;29;20274;-82
2021/12/27 20:52:16;;;;;;;9.93;2.70;;;10.40;99.90;;;;;;4896432;29;20221;-81
2021/12/27 20:54:43;;;;;;;5.17;1.60;;;10.40;99.90;;;;;;4883636;29;20211;-74
2021/12/27 20:57:09;;;;;;;10.07;1.87;;;10.40;99.90;;;;;;4892119;29;20238;-73
2021/12/27 20:59:36;;;;;;;9.13;1.57;;;10.30;99.90;;;;;;4889995;29;20582;-73
2021/12/27 21:02:04;;;;;;;4.20;1.30;;;10.30;99.90;;;;;;4888566;29;20225;-73
2021/12/27 21:04:31;;;;;;;6.90;1.80;;;10.30;99.90;;;;;;4892437;29;20219;-75
2021/12/27 21:07:00;;;;;;;5.13;2.00;;;10.20;99.90;;;;;;4886190;29;20235;-72
2021/12/27 21:09:27;;;;;;;9.97;2.20;;;10.20;99.90;;;;;;4887104;29;20331;-82
2021/12/27 21:11:54;;;;;;;8.57;2.07;;;10.20;99.90;;;;;;4892724;29;20221;-74
2021/12/27 21:14:21;;;;;;;13.53;2.57;;;10.10;99.90;;;;;;4885090;29;20219;-80
2021/12/27 21:16:48;;;;;;;9.47;1.70;;;10.00;99.90;;;;;;4891188;29;20231;-80
2021/12/27 21:19:15;;;;;;;9.70;2.10;;;9.90;99.90;;;;;;4887792;29;20609;-73
2021/12/27 21:21:42;;;;;;;8.70;1.37;;;9.90;99.90;;;;;;4886157;29;20210;-75
2021/12/27 21:24:14;;;;;;;8.13;1.60;;;9.90;99.90;;;;;;4890577;29;20210;-73
2021/12/27 21:26:41;;;;;;;9.20;1.30;;;9.90;99.90;;;;;;4895880;29;20226;-80
2021/12/27 21:29:08;;;;;;;10.60;1.83;;;9.90;99.90;;;;;;4892853;29;20226;-73
2021/12/27 21:31:35;;;;;;;8.40;1.90;;;9.90;99.90;;;;;;4892629;29;20214;-80
2021/12/27 21:34:02;;;;;;;11.90;1.87;;;9.80;99.90;;;;;;4887115;29;20206;-73
